createdAt,value
2023-04-07T00:01:29.580Z,81.34
2023-04-07T00:03:57.885Z,81.33
2023-04-07T00:06:27.659Z,81.66
2023-04-07T00:08:55.748Z,81.91
2023-04-07T00:11:23.817Z,81.87
2023-04-07T00:13:52.238Z,82.03
2023-04-07T00:16:20.473Z,82.04
2023-04-07T00:18:48.530Z,82.07
2023-04-07T00:21:16.499Z,82.19
2023-04-07T00:23:45.180Z,82.38
2023-04-07T00:26:13.328Z,82.34
2023-04-07T00:28:42.258Z,82.63
2023-04-07T00:31:10.347Z,82.81
2023-04-07T00:33:38.310Z,82.91
2023-04-07T00:36:06.489Z,83.14
2023-04-07T00:38:34.527Z,83.24
2023-04-07T00:41:02.615Z,83.36
2023-04-07T00:43:30.608Z,83.45
2023-04-07T00:45:59.324Z,83.70
2023-04-07T00:48:27.395Z,83.74
2023-04-07T00:50:55.509Z,83.67
2023-04-07T00:53:24.237Z,83.89
2023-04-07T00:55:52.474Z,83.97
2023-04-07T00:58:20.941Z,84.08
2023-04-07T01:00:56.695Z,84.22
2023-04-07T01:03:52.709Z,84.31
2023-04-07T01:06:25.079Z,84.63
2023-04-07T01:09:01.720Z,84.72
2023-04-07T01:11:49.969Z,84.82
2023-04-07T01:14:21.256Z,84.91
2023-04-07T01:16:59.962Z,85.00
2023-04-07T01:19:40.937Z,85.03
2023-04-07T01:22:15.542Z,85.12
2023-04-07T01:24:47.128Z,85.05
2023-04-07T01:27:37.196Z,85.03
2023-04-07T01:30:10.135Z,85.11
2023-04-07T01:32:41.267Z,85.07
2023-04-07T01:35:13.771Z,85.02
2023-04-07T01:37:43.084Z,85.19
2023-04-07T01:40:12.530Z,85.12
2023-04-07T01:42:42.538Z,85.13
2023-04-07T01:45:11.621Z,85.36
2023-04-07T01:47:40.214Z,85.57
2023-04-07T01:50:11.801Z,85.58
2023-04-07T01:52:40.538Z,85.58
2023-04-07T01:55:10.273Z,85.65
2023-04-07T01:57:43.543Z,85.81
2023-04-07T02:00:18.285Z,85.81
2023-04-07T02:02:52.459Z,85.82
2023-04-07T02:05:23.004Z,85.93
2023-04-07T02:07:59.634Z,85.94
2023-04-07T02:10:29.717Z,86.03
2023-04-07T02:13:02.054Z,85.84
2023-04-07T02:15:32.251Z,85.90
2023-04-07T02:18:02.186Z,85.89
2023-04-07T02:20:31.953Z,85.75
2023-04-07T02:23:00.550Z,85.79
2023-04-07T02:25:29.398Z,85.66
2023-04-07T02:27:59.291Z,85.64
2023-04-07T02:30:28.220Z,85.31
2023-04-07T02:32:57.403Z,85.36
2023-04-07T02:35:25.655Z,85.43
2023-04-07T02:37:54.020Z,85.22
2023-04-07T02:40:21.999Z,85.35
2023-04-07T02:42:50.080Z,85.42
2023-04-07T02:45:18.146Z,85.26
2023-04-07T02:47:46.251Z,85.12
2023-04-07T02:50:14.358Z,84.95
2023-04-07T02:52:42.249Z,84.92
2023-04-07T02:55:12.883Z,84.62
2023-04-07T02:57:41.229Z,84.56
2023-04-07T03:00:20.598Z,84.61
2023-04-07T03:02:57.833Z,84.59
2023-04-07T03:05:26.777Z,84.48
2023-04-07T03:07:54.737Z,84.46
2023-04-07T03:10:23.014Z,84.42
2023-04-07T03:12:52.252Z,84.13
2023-04-07T03:15:20.372Z,83.94
2023-04-07T03:17:49.164Z,84.11
2023-04-07T03:20:17.759Z,84.03
2023-04-07T03:22:47.560Z,83.93
2023-04-07T03:25:26.897Z,83.85
2023-04-07T03:27:55.238Z,84.00
2023-04-07T03:30:23.547Z,83.98
2023-04-07T03:32:51.635Z,84.29
2023-04-07T03:35:19.630Z,84.34
2023-04-07T03:37:47.661Z,84.41
2023-04-07T03:40:18.188Z,84.44
2023-04-07T03:42:46.941Z,84.27
2023-04-07T03:45:16.697Z,84.40
2023-04-07T03:47:48.584Z,84.75
2023-04-07T03:50:16.816Z,84.98
2023-04-07T03:53:00.811Z,85.13
2023-04-07T03:55:31.955Z,85.36
2023-04-07T03:58:03.350Z,85.32
2023-04-07T04:00:33.772Z,85.21
2023-04-07T04:03:09.251Z,85.39
2023-04-07T04:05:40.960Z,85.37
2023-04-07T04:08:10.073Z,85.43
2023-04-07T04:10:39.337Z,85.40
2023-04-07T04:13:08.265Z,85.44
2023-04-07T04:15:36.669Z,85.54
2023-04-07T04:18:05.855Z,85.57
2023-04-07T04:20:34.340Z,85.42
2023-04-07T04:23:03.325Z,85.37
2023-04-07T04:25:31.659Z,85.48
2023-04-07T04:27:59.865Z,85.28
2023-04-07T04:30:27.903Z,85.33
2023-04-07T04:32:58.907Z,85.16
2023-04-07T04:35:34.128Z,84.89
2023-04-07T04:38:13.750Z,84.94
2023-04-07T04:40:46.030Z,85.16
2023-04-07T04:43:14.316Z,84.84
2023-04-07T04:45:42.774Z,85.14
2023-04-07T04:48:12.301Z,85.26
2023-04-07T04:50:43.322Z,85.16
2023-04-07T04:53:13.232Z,85.07
2023-04-07T04:55:52.170Z,85.09
2023-04-07T04:58:23.795Z,85.01
2023-04-07T05:00:59.003Z,84.86
2023-04-07T05:03:32.791Z,84.48
2023-04-07T05:06:03.177Z,84.33
2023-04-07T05:08:31.366Z,83.98
2023-04-07T05:11:00.858Z,83.73
2023-04-07T05:13:31.516Z,83.48
2023-04-07T05:16:01.703Z,83.13
2023-04-07T05:18:30.900Z,83.15
2023-04-07T05:20:59.383Z,83.18
2023-04-07T05:23:28.083Z,83.29
2023-04-07T05:25:56.541Z,83.42
2023-04-07T05:28:25.454Z,83.37
2023-04-07T05:30:54.896Z,83.41
2023-04-07T05:33:25.270Z,83.37
2023-04-07T05:35:54.214Z,83.61
2023-04-07T05:38:22.430Z,83.61
2023-04-07T05:40:50.729Z,83.77
2023-04-07T05:43:25.539Z,83.89
2023-04-07T05:45:53.654Z,83.73
2023-04-07T05:48:22.169Z,83.90
2023-04-07T05:50:50.467Z,84.01
2023-04-07T05:53:19.251Z,83.86
2023-04-07T05:55:47.462Z,84.11
2023-04-07T05:58:34.442Z,84.20
2023-04-07T06:01:02.480Z,84.12
2023-04-07T06:03:30.665Z,84.09
2023-04-07T06:06:10.103Z,84.12
2023-04-07T06:08:38.409Z,84.08
2023-04-07T06:11:07.077Z,83.96
2023-04-07T06:13:35.457Z,83.96
2023-04-07T06:16:05.230Z,83.77
2023-04-07T06:18:33.178Z,83.57
2023-04-07T06:21:01.459Z,83.54
2023-04-07T06:23:29.501Z,83.67
2023-04-07T06:25:57.608Z,83.58
2023-04-07T06:28:25.926Z,83.56
2023-04-07T06:30:54.015Z,83.45
2023-04-07T06:33:25.956Z,83.27
2023-04-07T06:35:53.923Z,83.06
2023-04-07T06:38:22.330Z,83.12
2023-04-07T06:40:51.599Z,82.98
2023-04-07T06:43:19.534Z,83.01
2023-04-07T06:45:55.781Z,82.96
2023-04-07T06:48:23.925Z,82.84
2023-04-07T06:50:52.177Z,82.61
2023-04-07T06:53:20.249Z,82.64
2023-04-07T06:55:48.322Z,82.52
2023-04-07T06:58:16.300Z,82.31
2023-04-07T07:00:44.360Z,82.27
2023-04-07T07:03:12.461Z,82.13
2023-04-07T07:05:40.615Z,81.99
2023-04-07T07:08:08.681Z,81.72
2023-04-07T07:10:36.660Z,81.84
2023-04-07T07:13:04.723Z,81.82
2023-04-07T07:15:32.705Z,81.66
2023-04-07T07:18:00.841Z,81.57
2023-04-07T07:20:28.920Z,81.68
2023-04-07T07:22:56.997Z,81.69
2023-04-07T07:25:27.216Z,81.74
2023-04-07T07:27:55.339Z,81.61
2023-04-07T07:30:24.527Z,81.57
2023-04-07T07:32:53.906Z,81.23
2023-04-07T07:35:23.096Z,80.95
2023-04-07T07:37:52.072Z,80.70
2023-04-07T07:40:20.515Z,80.33
2023-04-07T07:42:48.519Z,79.65
2023-04-07T07:45:17.718Z,79.36
2023-04-07T07:47:45.875Z,79.24
2023-04-07T07:50:13.894Z,79.47
2023-04-07T07:52:41.960Z,79.28
2023-04-07T07:55:10.479Z,79.13
2023-04-07T07:57:38.479Z,78.78
2023-04-07T08:00:07.196Z,78.51
2023-04-07T08:02:41.379Z,78.40
2023-04-07T08:05:10.189Z,78.61
2023-04-07T08:07:38.160Z,78.32
2023-04-07T08:10:07.020Z,78.22
2023-04-07T08:12:35.890Z,77.64
2023-04-07T08:15:04.797Z,77.19
2023-04-07T08:17:32.847Z,77.02
2023-04-07T08:20:01.346Z,76.70
2023-04-07T08:22:29.619Z,76.08
2023-04-07T08:24:57.796Z,75.73
2023-04-07T08:27:25.778Z,75.28
2023-04-07T08:30:02.260Z,74.46
2023-04-07T08:32:37.450Z,73.85
2023-04-07T08:35:05.941Z,73.96
2023-04-07T08:37:35.056Z,73.77
2023-04-07T08:40:04.175Z,74.04
2023-04-07T08:42:34.721Z,73.01
2023-04-07T08:45:05.342Z,73.05
2023-04-07T08:47:35.337Z,72.12
2023-04-07T08:50:11.793Z,71.56
2023-04-07T08:52:56.816Z,70.87
2023-04-07T08:55:26.337Z,70.30
2023-04-07T08:57:54.597Z,70.15
2023-04-07T09:00:22.881Z,69.18
2023-04-07T09:02:52.091Z,68.04
2023-04-07T09:05:21.609Z,67.40
2023-04-07T09:07:49.576Z,67.04
2023-04-07T09:10:18.059Z,66.54
2023-04-07T09:12:46.229Z,65.77
2023-04-07T09:15:14.604Z,65.42
2023-04-07T09:17:42.891Z,65.47
2023-04-07T09:20:11.326Z,65.52
2023-04-07T09:22:42.647Z,65.38
2023-04-07T09:25:19.935Z,65.12
2023-04-07T09:28:00.928Z,64.95
2023-04-07T09:30:31.081Z,65.16
2023-04-07T09:33:00.775Z,64.87
2023-04-07T09:35:29.979Z,65.30
2023-04-07T09:38:09.848Z,65.11
2023-04-07T09:40:38.668Z,65.11
2023-04-07T09:43:07.349Z,65.37
2023-04-07T09:45:37.148Z,65.48
2023-04-07T09:48:07.935Z,65.68
2023-04-07T09:50:46.070Z,65.65
2023-04-07T09:53:14.131Z,65.47
2023-04-07T09:55:42.621Z,64.48
2023-04-07T09:58:17.205Z,64.07
2023-04-07T10:00:46.859Z,63.73
2023-04-07T10:03:15.770Z,64.11
2023-04-07T10:05:45.193Z,64.15
2023-04-07T10:08:14.430Z,64.47
2023-04-07T10:10:44.019Z,64.54
2023-04-07T10:13:12.824Z,64.41
2023-04-07T10:15:41.120Z,63.62
2023-04-07T10:18:09.694Z,63.57
2023-04-07T10:20:43.972Z,64.07
2023-04-07T10:23:23.492Z,63.88
2023-04-07T10:25:54.938Z,64.12
2023-04-07T10:28:26.239Z,64.50
2023-04-07T10:30:55.418Z,64.56
2023-04-07T10:33:47.316Z,63.73
2023-04-07T10:36:18.328Z,63.95
2023-04-07T10:39:09.525Z,64.51
2023-04-07T10:41:39.427Z,64.91
2023-04-07T10:44:08.944Z,64.97
2023-04-07T10:46:47.329Z,65.63
2023-04-07T10:49:18.582Z,65.67
2023-04-07T10:52:27.190Z,66.18
2023-04-07T10:55:32.246Z,65.87
2023-04-07T10:58:19.242Z,65.85
2023-04-07T11:01:14.856Z,65.69
2023-04-07T11:03:53.887Z,65.79
2023-04-07T11:06:22.006Z,65.86
2023-04-07T11:08:53.330Z,66.56
2023-04-07T11:11:42.504Z,66.35
2023-04-07T11:14:11.170Z,66.74
2023-04-07T11:16:43.553Z,66.98
2023-04-07T11:19:12.640Z,66.88
2023-04-07T11:21:40.631Z,66.71
2023-04-07T11:24:08.680Z,66.89
2023-04-07T11:26:41.792Z,67.16
2023-04-07T11:29:11.992Z,67.40
2023-04-07T11:31:40.330Z,67.51
2023-04-07T11:34:09.181Z,67.79
2023-04-07T11:36:42.004Z,67.84
2023-04-07T11:39:23.721Z,68.00
2023-04-07T11:41:51.693Z,68.49
2023-04-07T11:44:20.069Z,68.91
2023-04-07T11:46:59.253Z,69.08
2023-04-07T11:49:28.537Z,68.23
2023-04-07T11:52:00.163Z,67.71
2023-04-07T11:54:28.630Z,67.62
2023-04-07T11:56:56.709Z,67.72
2023-04-07T11:59:25.835Z,67.33
2023-04-07T12:01:56.941Z,67.34
2023-04-07T12:04:26.242Z,67.20
2023-04-07T12:06:54.420Z,67.57
2023-04-07T12:09:36.298Z,67.16
2023-04-07T12:12:08.748Z,66.44
2023-04-07T12:14:37.348Z,65.72
2023-04-07T12:17:05.580Z,65.85
2023-04-07T12:19:36.330Z,65.53
2023-04-07T12:22:04.571Z,65.29
2023-04-07T12:24:32.720Z,65.27
2023-04-07T12:27:00.797Z,65.49
2023-04-07T12:29:30.111Z,65.44
2023-04-07T12:31:58.125Z,65.45
2023-04-07T12:34:27.718Z,65.42
2023-04-07T12:36:55.998Z,65.57
2023-04-07T12:39:23.963Z,65.11
2023-04-07T12:41:53.350Z,64.81
2023-04-07T12:44:21.578Z,64.88
2023-04-07T12:46:49.657Z,65.21
2023-04-07T12:49:17.723Z,65.00
2023-04-07T12:51:46.117Z,64.63
2023-04-07T12:54:15.098Z,64.81
2023-04-07T12:56:43.089Z,64.39
2023-04-07T12:59:11.080Z,64.59
2023-04-07T13:01:39.128Z,64.14
2023-04-07T13:04:07.571Z,64.09
2023-04-07T13:06:35.733Z,63.92
2023-04-07T13:09:03.859Z,63.76
2023-04-07T13:11:31.965Z,63.78
2023-04-07T13:14:01.253Z,63.91
2023-04-07T13:16:29.815Z,64.33
2023-04-07T13:18:58.515Z,64.21
2023-04-07T13:21:45.227Z,64.08
2023-04-07T13:24:14.996Z,64.71
2023-04-07T13:26:43.243Z,64.71
2023-04-07T13:29:11.627Z,64.85
2023-04-07T13:31:39.649Z,64.43
2023-04-07T13:34:07.790Z,64.62
2023-04-07T13:36:35.741Z,64.41
2023-04-07T13:39:03.812Z,64.19
2023-04-07T13:41:32.301Z,64.39
2023-04-07T13:44:01.293Z,64.67
2023-04-07T13:46:29.501Z,64.57
2023-04-07T13:48:57.729Z,64.66
2023-04-07T13:51:26.007Z,64.89
2023-04-07T13:53:54.299Z,64.92
2023-04-07T13:56:22.693Z,64.86
2023-04-07T13:58:50.668Z,64.74
2023-04-07T14:01:18.695Z,64.66
2023-04-07T14:03:47.091Z,64.62
2023-04-07T14:06:15.608Z,64.73
2023-04-07T14:08:43.845Z,64.59
2023-04-07T14:11:12.106Z,64.59
2023-04-07T14:13:40.052Z,64.77
2023-04-07T14:16:08.453Z,64.92
2023-04-07T14:18:37.335Z,64.69
2023-04-07T14:21:06.195Z,64.79
2023-04-07T14:23:37.732Z,64.94
2023-04-07T14:26:09.405Z,64.85
2023-04-07T14:28:37.655Z,64.93
2023-04-07T14:31:06.325Z,64.91
2023-04-07T14:33:34.471Z,64.89
2023-04-07T14:36:02.647Z,65.17
2023-04-07T14:38:30.983Z,65.23
2023-04-07T14:41:09.533Z,65.46
2023-04-07T14:43:38.729Z,65.36
2023-04-07T14:46:07.824Z,65.68
2023-04-07T14:48:35.806Z,65.72
2023-04-07T14:51:09.830Z,65.75
2023-04-07T14:53:38.082Z,65.88
2023-04-07T14:56:06.700Z,66.34
2023-04-07T14:58:37.619Z,66.65
2023-04-07T15:01:06.708Z,66.66
2023-04-07T15:03:37.835Z,66.82
2023-04-07T15:06:11.188Z,67.03
2023-04-07T15:08:41.802Z,67.13
2023-04-07T15:11:09.860Z,67.50
2023-04-07T15:13:37.825Z,67.68
2023-04-07T15:16:10.762Z,67.42
2023-04-07T15:18:41.180Z,67.74
2023-04-07T15:21:10.350Z,67.81
2023-04-07T15:23:39.003Z,67.96
2023-04-07T15:26:07.560Z,67.76
2023-04-07T15:28:35.917Z,67.72
2023-04-07T15:31:09.289Z,67.85
2023-04-07T15:33:39.022Z,67.64
2023-04-07T15:36:08.441Z,67.56
2023-04-07T15:38:39.085Z,67.49
2023-04-07T15:41:07.240Z,67.49
2023-04-07T15:43:36.874Z,67.38
2023-04-07T15:46:04.911Z,67.40
2023-04-07T15:48:33.003Z,67.48
2023-04-07T15:51:00.932Z,67.55
2023-04-07T15:53:29.668Z,67.75
2023-04-07T15:55:57.730Z,67.86
2023-04-07T15:58:25.703Z,67.84
2023-04-07T16:00:53.830Z,67.96
2023-04-07T16:03:22.010Z,67.91
2023-04-07T16:05:51.235Z,68.04
2023-04-07T16:08:19.471Z,68.20
2023-04-07T16:10:47.402Z,68.02
2023-04-07T16:13:15.624Z,68.12
2023-04-07T16:15:43.561Z,68.09
2023-04-07T16:18:14.866Z,68.12
2023-04-07T16:20:42.970Z,68.12
2023-04-07T16:23:11.019Z,68.02
2023-04-07T16:25:38.972Z,68.10
2023-04-07T16:28:07.227Z,68.30
2023-04-07T16:30:35.537Z,68.64
2023-04-07T16:33:03.678Z,68.78
2023-04-07T16:35:32.172Z,68.57
2023-04-07T16:38:04.734Z,68.62
2023-04-07T16:40:33.768Z,68.70
2023-04-07T16:43:01.781Z,68.89
2023-04-07T16:45:29.994Z,68.95
2023-04-07T16:47:58.100Z,69.06
2023-04-07T16:50:26.356Z,69.26
2023-04-07T16:52:57.362Z,69.27
2023-04-07T16:55:25.619Z,69.20
2023-04-07T16:57:53.640Z,69.41
2023-04-07T17:00:22.209Z,69.30
2023-04-07T17:02:50.345Z,69.35
2023-04-07T17:05:18.600Z,69.40
2023-04-07T17:07:47.745Z,69.40
2023-04-07T17:10:15.812Z,69.43
2023-04-07T17:12:45.102Z,69.43
2023-04-07T17:15:13.093Z,69.50
2023-04-07T17:17:41.427Z,69.46
2023-04-07T17:20:10.988Z,69.54
2023-04-07T17:22:39.147Z,69.52
2023-04-07T17:25:07.531Z,69.40
2023-04-07T17:27:36.036Z,69.31
2023-04-07T17:30:05.289Z,69.25
2023-04-07T17:32:33.559Z,69.30
2023-04-07T17:35:01.631Z,69.32
2023-04-07T17:37:29.577Z,69.40
2023-04-07T17:39:57.677Z,69.31
2023-04-07T17:42:26.362Z,69.52
2023-04-07T17:44:54.439Z,69.59
2023-04-07T17:47:22.368Z,69.88
2023-04-07T17:49:50.320Z,69.91
2023-04-07T17:52:18.382Z,70.12
2023-04-07T17:54:46.386Z,70.11
2023-04-07T17:57:16.013Z,70.01
2023-04-07T17:59:44.087Z,70.02
2023-04-07T18:02:12.319Z,70.01
2023-04-07T18:04:41.424Z,70.01
2023-04-07T18:07:12.677Z,69.98
2023-04-07T18:09:43.025Z,69.99
2023-04-07T18:12:11.198Z,70.23
2023-04-07T18:14:39.225Z,70.29
2023-04-07T18:17:07.268Z,70.23
2023-04-07T18:19:35.564Z,70.51
2023-04-07T18:22:03.783Z,70.45
2023-04-07T18:24:32.744Z,70.18
2023-04-07T18:27:01.481Z,70.39
2023-04-07T18:29:30.793Z,70.30
2023-04-07T18:31:58.739Z,70.18
2023-04-07T18:34:26.848Z,69.93
2023-04-07T18:36:55.753Z,69.96
2023-04-07T18:39:28.157Z,69.91
2023-04-07T18:41:57.670Z,70.14
2023-04-07T18:44:26.227Z,70.16
2023-04-07T18:46:54.823Z,70.20
2023-04-07T18:49:23.237Z,70.10
2023-04-07T18:51:52.263Z,70.38
2023-04-07T18:54:21.410Z,70.39
2023-04-07T18:56:49.530Z,70.23
2023-04-07T18:59:17.455Z,70.34
2023-04-07T19:01:45.684Z,70.61
2023-04-07T19:04:15.303Z,70.76
2023-04-07T19:06:43.515Z,71.17
2023-04-07T19:09:11.488Z,71.49
2023-04-07T19:11:41.635Z,71.87
2023-04-07T19:14:09.568Z,72.31
2023-04-07T19:16:37.903Z,72.49
2023-04-07T19:19:06.246Z,72.71
2023-04-07T19:21:34.275Z,73.01
2023-04-07T19:24:02.306Z,73.20
2023-04-07T19:26:30.513Z,73.50
2023-04-07T19:28:58.590Z,73.74
2023-04-07T19:31:26.599Z,73.88
2023-04-07T19:33:54.629Z,73.86
2023-04-07T19:36:22.623Z,73.86
2023-04-07T19:38:50.525Z,74.02
2023-04-07T19:41:18.435Z,74.30
2023-04-07T19:43:47.003Z,74.43
2023-04-07T19:46:15.122Z,74.48
2023-04-07T19:48:43.562Z,74.61
2023-04-07T19:51:11.459Z,74.66
2023-04-07T19:53:39.498Z,74.69
2023-04-07T19:56:07.470Z,74.78
2023-04-07T19:58:35.755Z,74.66
2023-04-07T20:01:04.691Z,74.78
2023-04-07T20:03:33.614Z,75.11
2023-04-07T20:06:02.009Z,75.22
2023-04-07T20:08:30.214Z,75.11
2023-04-07T20:10:58.141Z,75.34
2023-04-07T20:13:26.110Z,75.59
2023-04-07T20:15:54.952Z,75.84
2023-04-07T20:18:22.971Z,76.01
2023-04-07T20:20:58.959Z,76.30
2023-04-07T20:23:27.315Z,76.45
2023-04-07T20:25:55.368Z,76.64
2023-04-07T20:28:24.531Z,76.61
2023-04-07T20:30:52.584Z,76.92
2023-04-07T20:33:20.713Z,76.93
2023-04-07T20:35:49.590Z,76.96
2023-04-07T20:38:18.910Z,76.88
2023-04-07T20:40:47.080Z,76.60
2023-04-07T20:43:18.257Z,76.51
2023-04-07T20:45:47.698Z,76.62
2023-04-07T20:48:17.431Z,76.64
2023-04-07T20:50:45.514Z,76.71
2023-04-07T20:53:13.643Z,76.78
2023-04-07T20:55:41.566Z,76.97
2023-04-07T20:58:09.498Z,77.00
2023-04-07T21:00:37.584Z,77.20
2023-04-07T21:03:06.021Z,77.49
2023-04-07T21:05:34.129Z,77.61
2023-04-07T21:08:02.077Z,78.06
2023-04-07T21:10:30.094Z,78.52
2023-04-07T21:12:58.036Z,78.89
2023-04-07T21:15:26.164Z,79.02
2023-04-07T21:17:54.268Z,79.23
2023-04-07T21:20:22.350Z,79.22
2023-04-07T21:22:50.548Z,79.62
2023-04-07T21:25:18.590Z,79.86
2023-04-07T21:27:46.561Z,80.37
2023-04-07T21:30:14.678Z,80.38
2023-04-07T21:32:45.837Z,80.53
2023-04-07T21:35:13.927Z,80.61
2023-04-07T21:37:41.918Z,80.49
2023-04-07T21:40:10.552Z,80.13
2023-04-07T21:42:38.550Z,80.02
2023-04-07T21:45:07.468Z,79.98
2023-04-07T21:47:35.626Z,80.13
2023-04-07T21:50:03.924Z,80.25
2023-04-07T21:52:32.107Z,80.40
2023-04-07T21:55:00.162Z,80.42
2023-04-07T21:57:28.200Z,80.62
2023-04-07T21:59:56.290Z,80.51
2023-04-07T22:02:24.353Z,80.59
2023-04-07T22:04:52.519Z,80.69
2023-04-07T22:07:20.463Z,80.50
2023-04-07T22:09:48.469Z,80.43
2023-04-07T22:12:16.427Z,80.49
2023-04-07T22:14:45.331Z,80.72
2023-04-07T22:17:13.398Z,80.82
2023-04-07T22:19:41.484Z,80.90
2023-04-07T22:22:09.543Z,81.15
2023-04-07T22:24:37.508Z,81.19
2023-04-07T22:27:05.692Z,81.28
2023-04-07T22:29:33.763Z,81.17
2023-04-07T22:32:01.740Z,81.41
2023-04-07T22:34:29.649Z,81.36
2023-04-07T22:36:58.017Z,81.39
2023-04-07T22:39:26.827Z,81.41
2023-04-07T22:41:54.821Z,81.66
2023-04-07T22:44:22.805Z,81.55
2023-04-07T22:46:50.764Z,81.18
2023-04-07T22:49:18.764Z,81.12
2023-04-07T22:51:48.671Z,80.97
2023-04-07T22:54:17.947Z,81.10
2023-04-07T22:56:46.524Z,80.99
2023-04-07T22:59:14.482Z,80.98
2023-04-07T23:01:42.642Z,81.27
2023-04-07T23:04:10.936Z,81.25
2023-04-07T23:06:40.758Z,81.23
2023-04-07T23:09:08.850Z,81.14
2023-04-07T23:11:36.890Z,81.19
2023-04-07T23:14:07.940Z,81.16
2023-04-07T23:16:36.100Z,81.33
2023-04-07T23:19:04.125Z,81.56
2023-04-07T23:21:32.337Z,81.84
2023-04-07T23:24:00.717Z,81.97
2023-04-07T23:26:28.699Z,81.98
2023-04-07T23:28:56.654Z,81.95
2023-04-07T23:31:24.747Z,81.86
2023-04-07T23:33:52.797Z,81.95
2023-04-07T23:36:20.782Z,81.93
2023-04-07T23:38:48.867Z,82.16
2023-04-07T23:41:17.118Z,82.05
2023-04-07T23:43:45.081Z,82.00
2023-04-07T23:46:13.851Z,81.82
2023-04-07T23:48:42.519Z,81.88
2023-04-07T23:51:10.481Z,82.06
2023-04-07T23:53:38.398Z,82.08
2023-04-07T23:56:06.601Z,82.11
2023-04-07T23:58:34.630Z,82.20
